Bremen, IN

3:39 AM EST on February 21, 2017 (GMT -0500)
Bremen, IN | | Change Station
Active Advisory: Small Craft Advisory

Elev 823 ft 41.44 °N, 86.16 °W | Updated 18 seconds ago

Mostly Cloudy
Mostly Cloudy
51.0 °F
Feels Like 51.0 °F
N
10.4
Wind Variable Wind from SE
Gusts 10.4 mph

Today
High -- | Low -- °F
--% Chance of Precip.
Yesterday
High -- | Low -- °F
Precip. -- in
Pressure 29.96 in
Visibility 10.0 miles
Clouds Clear
Dew Point 44 °F
Humidity 76%
Rainfall 0.00 in
Snow Depth Not available.
7:30 AM 6:26 PM
Waning Crescent, 27% visible
METAR KGSH 210753Z AUTO 13009KT 10SM CLR 10/04 A2995 RMK AO2 SLP143 T01000039 $
Pressure 29.96 in
Visibility 10.0 miles
Clouds Clear
Dew Point 44 °F
Humidity 76%
Rainfall 0.00 in
Snow Depth Not available.
7:30 AM 6:26 PM
Waning Crescent, 27% visible
METAR KGSH 210753Z AUTO 13009KT 10SM CLR 10/04 A2995 RMK AO2 SLP143 T01000039 $

Get Your Daily Forecast Email!

Thanks for signing up!

Be on the lookout for a verification email in your inbox.

You'll start receiving the daily forecast at 8 AM.

×

10-Day Weather Forecast

Almanac

Astronomy

Feb. 21, 2017 Rise Set
Actual Time
Civil Twilight
Nautical Twilight
Astronomical Twilight
Moon
Length of Visible Light
Length of Day
Tomorrow will be .
, % of the Moon is Illuminated

Today's Extremes

State Highs State Lows

Community

WunderPhotos

Upload Photos

1,962,540 photos uploaded!

WunderBlog® & News

Nearby

Air Quality

  Air Quality AQ Index Pollutant
Not available.

Snow Depth

Station Depth Elevation

Earthquake Activity

City Distance Mag. Time & Date
Minimum magnitude displayed is 2.5.

Coastal Water Temperatures

Place Temperature

Stations

Nearby Weather Stations

Station Location Temp. Windchill Dew Point Humidity Wind Precip. Elev Updated Type
                   

Watches & Warnings

Small Craft Advisory
Issued: 10:21 PM EST Feb. 20, 2017 – National Weather Service

... Small Craft Advisory remains in effect until 4 am EST
Tuesday...

A Small Craft Advisory remains in effect until 4 am EST Tuesday.

* Winds: southeast 10 to 20 knots... veering south... then
southwest 10 to 15 knots overnight. Gusts up to 25 knots.

* Waves: 1 to 4 feet.

Precautionary/preparedness actions...

A Small Craft Advisory means that sustained winds or frequent
gusts of 22 to 33 knots are likely... and/or waves greater than
4 feet are expected. Inexperienced mariners... especially those
operating smaller vessels should avoid navigating in these
conditions.